createdAt,value
2022-12-04T00:01:46.786Z,4.50
2022-12-04T00:04:14.449Z,4.20
2022-12-04T00:06:42.100Z,4.18
2022-12-04T00:09:09.763Z,4.38
2022-12-04T00:11:37.445Z,4.30
2022-12-04T00:14:07.428Z,4.30
2022-12-04T00:16:35.493Z,4.15
2022-12-04T00:19:04.611Z,4.10
2022-12-04T00:21:32.343Z,4.22
2022-12-04T00:24:00.205Z,4.32
2022-12-04T00:26:28.588Z,4.28
2022-12-04T00:28:56.807Z,4.32
2022-12-04T00:31:26.298Z,4.38
2022-12-04T00:33:54.011Z,4.00
2022-12-04T00:36:23.887Z,4.22
2022-12-04T00:38:51.643Z,4.00
2022-12-04T00:41:21.569Z,4.38
2022-12-04T00:43:49.271Z,4.18
2022-12-04T00:46:17.518Z,4.20
2022-12-04T00:48:45.360Z,4.40
2022-12-04T00:51:14.251Z,4.60
2022-12-04T00:53:43.352Z,4.30
2022-12-04T00:56:11.846Z,4.00
2022-12-04T00:58:39.491Z,4.45
2022-12-04T01:01:08.215Z,4.43
2022-12-04T01:03:36.188Z,4.30
2022-12-04T01:06:04.150Z,4.38
2022-12-04T01:08:31.837Z,3.90
2022-12-04T01:11:00.807Z,4.38
2022-12-04T01:13:28.520Z,4.40
2022-12-04T01:15:56.169Z,4.38
2022-12-04T01:18:23.811Z,4.35
2022-12-04T01:20:52.205Z,4.32
2022-12-04T01:23:20.214Z,4.05
2022-12-04T01:25:52.432Z,4.45
2022-12-04T01:28:21.446Z,4.10
2022-12-04T01:31:01.471Z,4.10
2022-12-04T01:33:29.307Z,4.40
2022-12-04T01:35:57.191Z,4.32
2022-12-04T01:38:24.861Z,4.50
2022-12-04T01:40:52.672Z,4.25
2022-12-04T01:43:21.720Z,4.30
2022-12-04T01:45:50.636Z,4.05
2022-12-04T01:48:22.483Z,4.53
2022-12-04T01:50:51.470Z,4.00
2022-12-04T01:53:19.238Z,4.60
2022-12-04T01:55:47.073Z,4.30
2022-12-04T01:58:15.481Z,4.47
2022-12-04T02:00:47.384Z,4.25
2022-12-04T02:03:18.693Z,4.00
2022-12-04T02:05:46.376Z,4.65
2022-12-04T02:08:14.071Z,4.03
2022-12-04T02:10:46.039Z,4.45
2022-12-04T02:13:18.091Z,4.60
2022-12-04T02:15:49.977Z,4.65
2022-12-04T02:18:19.740Z,4.25
2022-12-04T02:20:49.247Z,4.30
2022-12-04T02:23:23.460Z,4.43
2022-12-04T02:25:55.219Z,3.95
2022-12-04T02:28:25.690Z,4.55
2022-12-04T02:30:57.451Z,4.50
2022-12-04T02:33:26.073Z,4.65
2022-12-04T02:35:56.453Z,4.40
2022-12-04T02:38:25.854Z,4.70
2022-12-04T02:40:57.205Z,4.40
2022-12-04T02:43:28.012Z,4.60
2022-12-04T02:45:58.614Z,4.50
2022-12-04T02:48:26.304Z,4.55
2022-12-04T02:50:54.641Z,4.32
2022-12-04T02:53:24.504Z,4.60
2022-12-04T02:55:53.315Z,4.82
2022-12-04T02:58:22.554Z,4.70
2022-12-04T03:00:51.596Z,4.40
2022-12-04T03:03:20.829Z,4.75
2022-12-04T03:05:51.901Z,4.63
2022-12-04T03:08:20.955Z,4.35
2022-12-04T03:10:50.638Z,4.10
2022-12-04T03:13:20.884Z,4.43
2022-12-04T03:15:49.317Z,4.80
2022-12-04T03:18:20.479Z,4.40
2022-12-04T03:20:49.384Z,4.57
2022-12-04T03:23:19.075Z,4.57
2022-12-04T03:25:47.496Z,4.80
2022-12-04T03:28:18.174Z,4.75
2022-12-04T03:30:50.816Z,4.90
2022-12-04T03:33:21.719Z,4.68
2022-12-04T03:35:50.642Z,4.25
2022-12-04T03:38:19.678Z,5.03
2022-12-04T03:40:50.654Z,4.13
2022-12-04T03:43:21.040Z,4.78
2022-12-04T03:45:49.668Z,4.43
2022-12-04T03:48:23.206Z,5.03
2022-12-04T03:50:52.989Z,4.47
2022-12-04T03:53:23.481Z,4.60
2022-12-04T03:55:53.328Z,4.38
2022-12-04T03:58:22.543Z,4.68
2022-12-04T04:00:51.486Z,4.45
2022-12-04T04:03:21.930Z,4.50
2022-12-04T04:05:53.118Z,4.28
2022-12-04T04:08:26.952Z,4.40
2022-12-04T04:10:55.889Z,4.47
2022-12-04T04:13:45.609Z,4.65
2022-12-04T04:16:31.662Z,4.60
2022-12-04T04:19:18.379Z,4.50
2022-12-04T04:22:03.730Z,4.85
2022-12-04T04:24:36.781Z,4.75
2022-12-04T04:27:04.579Z,4.47
2022-12-04T04:29:32.229Z,4.38
2022-12-04T04:32:01.943Z,4.53
2022-12-04T04:34:33.573Z,4.63
2022-12-04T04:37:03.663Z,4.30
2022-12-04T04:39:32.846Z,4.80
2022-12-04T04:42:03.254Z,4.43
2022-12-04T04:44:33.655Z,4.22
2022-12-04T04:47:02.718Z,4.50
2022-12-04T04:49:32.680Z,4.32
2022-12-04T04:52:00.376Z,4.55
2022-12-04T04:54:28.019Z,4.70
2022-12-04T04:56:55.680Z,4.55
2022-12-04T04:59:23.346Z,4.53
2022-12-04T05:01:51.072Z,5.00
2022-12-04T05:04:18.755Z,4.85
2022-12-04T05:06:48.837Z,4.53
2022-12-04T05:09:16.479Z,4.80
2022-12-04T05:11:44.131Z,4.45
2022-12-04T05:14:11.764Z,4.63
2022-12-04T05:16:39.979Z,4.75
2022-12-04T05:19:25.167Z,4.65
2022-12-04T05:21:54.183Z,4.53
2022-12-04T05:24:21.805Z,4.38
2022-12-04T05:26:49.457Z,4.50
2022-12-04T05:29:17.097Z,4.80
2022-12-04T05:31:44.809Z,4.65
2022-12-04T05:34:12.561Z,4.40
2022-12-04T05:36:40.218Z,4.70
2022-12-04T05:39:09.179Z,4.65
2022-12-04T05:41:36.844Z,4.90
2022-12-04T05:44:04.506Z,4.53
2022-12-04T05:46:32.247Z,4.93
2022-12-04T05:48:59.915Z,4.68
2022-12-04T05:51:27.557Z,4.65
2022-12-04T05:53:55.196Z,4.47
2022-12-04T05:56:24.183Z,4.93
2022-12-04T05:58:51.912Z,4.68
2022-12-04T06:01:21.557Z,4.93
2022-12-04T06:03:49.362Z,4.50
2022-12-04T06:06:21.814Z,4.80
2022-12-04T06:08:50.021Z,4.43
2022-12-04T06:11:18.631Z,5.10
2022-12-04T06:13:47.976Z,5.25
2022-12-04T06:16:16.216Z,4.70
2022-12-04T06:18:43.928Z,4.63
2022-12-04T06:21:11.750Z,4.65
2022-12-04T06:23:39.377Z,4.63
2022-12-04T06:26:07.894Z,4.88
2022-12-04T06:28:35.577Z,4.65
2022-12-04T06:31:05.269Z,4.63
2022-12-04T06:33:32.972Z,5.03
2022-12-04T06:36:01.154Z,4.60
2022-12-04T06:38:28.828Z,4.78
2022-12-04T06:40:56.466Z,4.78
2022-12-04T06:43:24.137Z,4.57
2022-12-04T06:46:00.820Z,4.63
2022-12-04T06:48:30.067Z,5.07
2022-12-04T06:51:01.329Z,5.03
2022-12-04T06:53:30.358Z,4.85
2022-12-04T06:55:58.949Z,4.65
2022-12-04T06:58:26.857Z,4.88
2022-12-04T07:00:54.767Z,4.70
2022-12-04T07:03:22.670Z,4.90
2022-12-04T07:05:51.679Z,4.63
2022-12-04T07:08:19.481Z,4.80
2022-12-04T07:10:47.135Z,4.78
2022-12-04T07:13:14.792Z,4.90
2022-12-04T07:15:42.486Z,4.80
2022-12-04T07:18:10.215Z,4.80
2022-12-04T07:20:40.409Z,5.05
2022-12-04T07:23:09.392Z,5.10
2022-12-04T07:25:40.315Z,4.72
2022-12-04T07:28:07.963Z,4.95
2022-12-04T07:30:35.599Z,4.70
2022-12-04T07:33:03.248Z,4.70
2022-12-04T07:35:30.920Z,4.97
2022-12-04T07:37:58.582Z,4.90
2022-12-04T07:40:27.551Z,4.78
2022-12-04T07:42:55.231Z,4.93
2022-12-04T07:45:22.869Z,4.78
2022-12-04T07:47:50.633Z,5.38
2022-12-04T07:50:18.466Z,4.47
2022-12-04T07:52:46.137Z,4.95
2022-12-04T07:55:16.498Z,4.90
2022-12-04T07:57:47.830Z,4.93
2022-12-04T08:00:16.808Z,5.30
2022-12-04T08:02:44.463Z,4.85
2022-12-04T08:05:12.124Z,4.90
2022-12-04T08:07:39.846Z,4.80
2022-12-04T08:10:08.366Z,5.15
2022-12-04T08:12:36.133Z,5.05
2022-12-04T08:15:06.216Z,4.75
2022-12-04T08:17:33.895Z,5.20
2022-12-04T08:20:01.571Z,5.07
2022-12-04T08:22:29.327Z,5.20
2022-12-04T08:24:56.999Z,4.95
2022-12-04T08:27:24.663Z,4.90
2022-12-04T08:29:52.394Z,4.90
2022-12-04T08:32:21.452Z,4.80
2022-12-04T08:34:55.705Z,5.00
2022-12-04T08:37:23.834Z,4.70
2022-12-04T08:39:51.505Z,4.78
2022-12-04T08:42:19.202Z,5.00
2022-12-04T08:44:46.941Z,4.93
2022-12-04T08:47:14.910Z,4.95
2022-12-04T08:49:43.931Z,5.10
2022-12-04T08:52:11.647Z,5.03
2022-12-04T08:54:39.308Z,5.50
2022-12-04T08:57:07.047Z,5.45
2022-12-04T08:59:34.918Z,5.95
2022-12-04T09:02:02.556Z,5.28
2022-12-04T09:04:30.214Z,6.32
2022-12-04T09:06:59.283Z,6.07
2022-12-04T09:09:26.914Z,5.63
2022-12-04T09:11:54.583Z,6.15
2022-12-04T09:14:25.631Z,7.00
2022-12-04T09:16:53.410Z,6.75
2022-12-04T09:19:21.112Z,7.13
2022-12-04T09:21:48.910Z,6.30
2022-12-04T09:24:17.972Z,7.00
2022-12-04T09:26:45.657Z,7.13
2022-12-04T09:29:13.338Z,7.20
2022-12-04T09:31:41.022Z,6.97
2022-12-04T09:34:08.824Z,7.50
2022-12-04T09:36:36.481Z,6.95
2022-12-04T09:39:04.237Z,7.28
2022-12-04T09:41:58.466Z,8.95
2022-12-04T09:44:28.444Z,7.00
2022-12-04T09:47:00.096Z,7.47
2022-12-04T09:49:29.244Z,8.90
2022-12-04T09:51:58.666Z,7.93
2022-12-04T09:54:28.179Z,20.05
2022-12-04T09:57:01.185Z,12.73
2022-12-04T09:59:30.021Z,10.13
2022-12-04T10:01:59.756Z,10.50
2022-12-04T10:04:27.448Z,10.13
2022-12-04T10:06:57.233Z,10.27
2022-12-04T10:09:27.547Z,10.43
2022-12-04T10:12:00.222Z,9.90
2022-12-04T10:14:52.023Z,10.65
2022-12-04T10:17:32.403Z,10.13
2022-12-04T10:20:03.763Z,29.15
2022-12-04T10:22:34.183Z,19.73
2022-12-04T10:25:04.841Z,14.85
2022-12-04T10:27:35.635Z,12.02
2022-12-04T10:30:04.907Z,10.60
2022-12-04T10:32:33.502Z,9.57
2022-12-04T10:35:07.071Z,9.60
2022-12-04T10:37:35.233Z,10.13
2022-12-04T10:40:06.467Z,10.00
2022-12-04T10:42:38.028Z,9.55
2022-12-04T10:45:06.232Z,9.27
2022-12-04T10:47:33.968Z,8.10
2022-12-04T10:50:03.189Z,10.63
2022-12-04T10:52:30.908Z,8.75
2022-12-04T10:54:59.738Z,10.18
2022-12-04T10:57:37.766Z,10.07
2022-12-04T11:00:07.254Z,9.50
2022-12-04T11:02:35.175Z,9.10
2022-12-04T11:05:04.778Z,9.68
2022-12-04T11:07:35.561Z,7.90
2022-12-04T11:10:05.610Z,7.78
2022-12-04T11:12:33.478Z,9.23
2022-12-04T11:15:04.602Z,8.48
2022-12-04T11:17:32.330Z,9.48
2022-12-04T11:20:00.823Z,8.25
2022-12-04T11:22:28.667Z,8.40
2022-12-04T11:24:57.223Z,8.13
2022-12-04T11:27:27.055Z,8.00
2022-12-04T11:29:55.172Z,8.00
2022-12-04T11:32:25.488Z,7.20
2022-12-04T11:34:54.365Z,7.05
2022-12-04T11:37:23.995Z,8.35
2022-12-04T11:39:51.693Z,7.18
2022-12-04T11:42:20.577Z,10.20
2022-12-04T11:44:52.455Z,10.38
2022-12-04T11:47:21.010Z,8.93
2022-12-04T11:50:03.816Z,7.47
2022-12-04T11:52:39.364Z,8.07
2022-12-04T11:55:09.995Z,8.10
2022-12-04T11:57:40.650Z,7.28
2022-12-04T12:00:13.386Z,7.35
2022-12-04T12:02:47.508Z,8.00
2022-12-04T12:05:28.315Z,8.13
2022-12-04T12:08:02.760Z,7.60
2022-12-04T12:10:33.016Z,7.20
2022-12-04T12:13:04.508Z,11.45
2022-12-04T12:15:35.230Z,10.00
2022-12-04T12:18:16.463Z,8.60
2022-12-04T12:20:52.238Z,9.45
2022-12-04T12:23:32.213Z,8.75
2022-12-04T12:26:03.121Z,6.18
2022-12-04T12:28:58.116Z,6.18
2022-12-04T12:31:38.394Z,6.28
2022-12-04T12:34:08.574Z,6.38
2022-12-04T12:36:43.580Z,6.80
2022-12-04T12:39:13.643Z,6.82
2022-12-04T12:41:43.662Z,7.25
2022-12-04T12:44:13.144Z,7.47
2022-12-04T12:46:44.067Z,7.63
2022-12-04T12:49:14.104Z,7.05
2022-12-04T12:51:44.703Z,11.88
2022-12-04T12:54:16.292Z,11.25
2022-12-04T12:59:34.738Z,19.63
2022-12-04T13:02:05.092Z,17.80
2022-12-04T13:04:36.394Z,13.95
2022-12-04T13:07:24.478Z,14.25
2022-12-04T13:09:55.828Z,13.15
2022-12-04T13:12:23.724Z,12.50
2022-12-04T13:14:51.772Z,11.02
2022-12-04T13:17:21.326Z,12.80
2022-12-04T13:19:51.751Z,12.63
2022-12-04T13:22:27.741Z,10.95
2022-12-04T13:25:02.274Z,11.85
2022-12-04T13:27:35.669Z,11.90
2022-12-04T13:30:10.391Z,10.93
2022-12-04T13:33:12.383Z,11.32
2022-12-04T13:35:56.014Z,10.10
2022-12-04T13:38:28.503Z,10.15
2022-12-04T13:40:56.878Z,10.38
2022-12-04T13:43:33.157Z,11.68
2022-12-04T13:46:01.981Z,10.60
2022-12-04T13:48:36.435Z,12.88
2022-12-04T13:51:27.353Z,12.18
2022-12-04T13:54:04.697Z,11.02
2022-12-04T13:56:32.671Z,9.63
2022-12-04T13:59:02.086Z,9.95
2022-12-04T14:01:38.695Z,10.07
2022-12-04T14:04:06.612Z,9.35
2022-12-04T14:06:37.609Z,10.75
2022-12-04T14:09:07.870Z,9.63
2022-12-04T14:11:43.654Z,8.77
2022-12-04T14:14:21.090Z,9.00
2022-12-04T14:16:48.941Z,10.15
2022-12-04T14:19:27.675Z,9.80
2022-12-04T14:21:55.415Z,9.05
2022-12-04T14:24:31.864Z,8.15
2022-12-04T14:27:15.092Z,9.68
2022-12-04T14:29:48.507Z,9.63
2022-12-04T14:32:17.855Z,9.85
2022-12-04T14:34:45.736Z,9.77
2022-12-04T14:37:27.996Z,9.13
2022-12-04T14:39:57.449Z,8.73
2022-12-04T14:42:26.504Z,9.02
2022-12-04T14:44:55.751Z,9.23
2022-12-04T14:47:30.373Z,9.48
2022-12-04T14:50:06.339Z,10.25
2022-12-04T14:52:36.171Z,9.13
2022-12-04T14:55:07.455Z,9.70
2022-12-04T14:57:43.476Z,10.70
2022-12-04T15:00:16.358Z,11.27
2022-12-04T15:02:44.394Z,11.43
2022-12-04T15:05:12.647Z,13.93
2022-12-04T15:07:46.195Z,12.32
2022-12-04T15:10:37.734Z,10.48
2022-12-04T15:13:05.394Z,11.55
2022-12-04T15:15:33.121Z,10.90
2022-12-04T15:18:02.267Z,10.50
2022-12-04T15:20:34.630Z,13.25
2022-12-04T15:23:06.465Z,11.52
2022-12-04T15:25:37.713Z,10.82
2022-12-04T15:28:09.517Z,10.65
2022-12-04T15:30:37.999Z,10.57
2022-12-04T15:33:05.826Z,13.52
2022-12-04T15:35:34.786Z,11.13
2022-12-04T15:38:02.589Z,36.83
2022-12-04T15:40:30.877Z,13.88
2022-12-04T15:43:15.290Z,13.20
2022-12-04T15:45:42.973Z,11.73
2022-12-04T15:48:10.676Z,12.55
2022-12-04T15:50:38.395Z,11.63
2022-12-04T15:53:13.722Z,11.75
2022-12-04T15:55:49.375Z,10.55
2022-12-04T15:58:21.113Z,13.05
2022-12-04T16:00:48.968Z,13.75
2022-12-04T16:03:24.755Z,13.25
2022-12-04T16:06:03.453Z,11.02
2022-12-04T16:08:32.544Z,11.68
2022-12-04T16:11:01.951Z,12.40
2022-12-04T16:13:32.879Z,12.38
2022-12-04T16:16:00.951Z,11.40
2022-12-04T16:18:29.064Z,10.15
2022-12-04T16:20:56.730Z,10.68
2022-12-04T16:23:25.771Z,9.18
2022-12-04T16:25:53.882Z,9.40
2022-12-04T16:28:21.935Z,9.50
2022-12-04T16:30:51.529Z,10.18
2022-12-04T16:33:19.358Z,9.32
2022-12-04T16:35:47.010Z,9.02
2022-12-04T16:38:16.577Z,9.23
2022-12-04T16:40:44.931Z,9.50
2022-12-04T16:43:13.389Z,9.68
2022-12-04T16:45:45.274Z,9.75
2022-12-04T16:48:14.590Z,8.98
2022-12-04T16:50:42.374Z,8.77
2022-12-04T16:53:13.415Z,8.35
2022-12-04T16:55:41.580Z,8.55
2022-12-04T16:58:09.400Z,8.25
2022-12-04T17:00:37.322Z,8.60
2022-12-04T17:03:05.186Z,8.65
2022-12-04T17:05:35.978Z,9.45
2022-12-04T17:08:03.705Z,8.55
2022-12-04T17:10:31.473Z,8.45
2022-12-04T17:12:59.199Z,8.32
2022-12-04T17:15:27.110Z,8.23
2022-12-04T17:17:54.876Z,8.05
2022-12-04T17:20:22.719Z,8.13
2022-12-04T17:22:51.922Z,7.82
2022-12-04T17:25:19.694Z,7.53
2022-12-04T17:27:47.398Z,7.55
2022-12-04T17:30:15.715Z,7.97
2022-12-04T17:32:43.407Z,8.00
2022-12-04T17:35:12.345Z,7.47
2022-12-04T17:37:40.132Z,7.97
2022-12-04T17:40:10.660Z,7.50
2022-12-04T17:42:38.370Z,7.30
2022-12-04T17:45:06.721Z,7.43
2022-12-04T17:47:35.307Z,7.60
2022-12-04T17:50:03.090Z,7.20
2022-12-04T17:52:30.844Z,7.40
2022-12-04T17:54:59.002Z,6.93
2022-12-04T17:57:28.509Z,7.45
2022-12-04T17:59:56.180Z,7.65
2022-12-04T18:02:23.936Z,7.38
2022-12-04T18:04:51.658Z,7.68
2022-12-04T18:07:19.353Z,6.78
2022-12-04T18:09:47.148Z,7.45
2022-12-04T18:12:17.905Z,6.35
2022-12-04T18:14:51.557Z,7.15
2022-12-04T18:17:22.441Z,7.05
2022-12-04T18:19:53.103Z,6.85
2022-12-04T18:22:21.964Z,6.70
2022-12-04T18:24:51.612Z,7.00
2022-12-04T18:27:19.488Z,7.45
2022-12-04T18:29:48.498Z,6.88
2022-12-04T18:32:16.205Z,6.47
2022-12-04T18:34:44.067Z,7.18
2022-12-04T18:37:11.732Z,6.20
2022-12-04T18:39:39.423Z,7.10
2022-12-04T18:42:08.573Z,6.60
2022-12-04T18:44:36.447Z,6.47
2022-12-04T18:47:05.629Z,6.82
2022-12-04T18:49:33.463Z,6.63
2022-12-04T18:52:01.168Z,6.10
2022-12-04T18:54:28.867Z,6.70
2022-12-04T18:56:56.569Z,6.88
2022-12-04T18:59:25.131Z,6.88
2022-12-04T19:01:53.217Z,6.88
2022-12-04T19:04:23.841Z,6.75
2022-12-04T19:06:52.547Z,6.88
2022-12-04T19:09:35.354Z,6.35
2022-12-04T19:12:10.870Z,6.57
2022-12-04T19:14:39.620Z,6.60
2022-12-04T19:17:07.400Z,6.88
2022-12-04T19:19:36.559Z,6.18
2022-12-04T19:22:04.269Z,6.40
2022-12-04T19:24:32.089Z,6.50
2022-12-04T19:27:01.682Z,6.43
2022-12-04T19:29:29.431Z,6.28
2022-12-04T19:31:59.573Z,6.35
2022-12-04T19:34:27.497Z,6.65
2022-12-04T19:36:56.554Z,6.78
2022-12-04T19:39:24.225Z,6.30
2022-12-04T19:41:52.733Z,6.95
2022-12-04T19:47:08.907Z,6.40
2022-12-04T19:49:36.677Z,6.63
2022-12-04T19:52:06.531Z,6.70
2022-12-04T19:54:34.226Z,6.88
2022-12-04T19:57:01.888Z,7.63
2022-12-04T19:59:33.176Z,7.50
2022-12-04T20:02:04.262Z,7.38
2022-12-04T20:04:31.992Z,6.75
2022-12-04T20:06:59.655Z,6.93
2022-12-04T20:09:28.635Z,6.93
2022-12-04T20:11:56.302Z,7.03
2022-12-04T20:14:24.221Z,7.78
2022-12-04T20:16:52.018Z,7.38
2022-12-04T20:19:20.009Z,7.55
2022-12-04T20:21:47.805Z,7.10
2022-12-04T20:24:16.331Z,7.03
2022-12-04T20:26:45.946Z,7.60
2022-12-04T20:29:14.497Z,7.78
2022-12-04T20:31:43.187Z,7.45
2022-12-04T20:34:16.229Z,8.20
2022-12-04T20:36:44.799Z,7.78
2022-12-04T20:39:12.982Z,7.55
2022-12-04T20:41:40.732Z,8.10
2022-12-04T20:44:11.578Z,7.45
2022-12-04T20:46:39.945Z,7.53
2022-12-04T20:49:13.384Z,7.70
2022-12-04T20:51:44.477Z,7.80
2022-12-04T20:54:14.114Z,8.18
2022-12-04T20:56:41.791Z,7.80
2022-12-04T20:59:13.995Z,7.95
2022-12-04T21:01:41.907Z,7.80
2022-12-04T21:04:09.679Z,8.13
2022-12-04T21:06:38.230Z,8.43
2022-12-04T21:09:06.649Z,8.02
2022-12-04T21:11:35.459Z,8.02
2022-12-04T21:14:21.920Z,8.25
2022-12-04T21:16:50.984Z,8.38
2022-12-04T21:19:20.458Z,9.15
2022-12-04T21:21:48.122Z,8.52
2022-12-04T21:24:16.782Z,8.23
2022-12-04T21:26:44.545Z,8.88
2022-12-04T21:29:12.304Z,9.05
2022-12-04T21:31:40.120Z,8.18
2022-12-04T21:34:10.829Z,9.05
2022-12-04T21:36:38.493Z,8.90
2022-12-04T21:39:06.195Z,9.05
2022-12-04T21:41:51.302Z,9.27
2022-12-04T21:44:20.171Z,9.75
2022-12-04T21:46:48.037Z,8.90
2022-12-04T21:49:17.036Z,9.68
2022-12-04T21:52:00.035Z,9.88
2022-12-04T21:54:27.827Z,9.85
2022-12-04T21:56:55.766Z,9.05
2022-12-04T21:59:23.525Z,10.27
2022-12-04T22:01:51.312Z,9.90
2022-12-04T22:04:20.351Z,10.55
2022-12-04T22:06:48.060Z,10.00
2022-12-04T22:09:15.702Z,10.13
2022-12-04T22:11:43.419Z,9.93
2022-12-04T22:14:11.261Z,10.50
2022-12-04T22:16:42.528Z,10.63
2022-12-04T22:19:10.922Z,9.60
2022-12-04T22:21:40.090Z,10.27
2022-12-04T22:24:08.644Z,9.88
2022-12-04T22:26:36.299Z,10.75
2022-12-04T22:29:26.728Z,10.10
2022-12-04T22:31:51.937Z,10.32
2022-12-04T22:34:19.660Z,10.88
2022-12-04T22:36:49.848Z,10.43
2022-12-04T22:39:17.512Z,10.70
2022-12-04T22:41:45.214Z,10.65
2022-12-04T22:44:12.870Z,10.68
2022-12-04T22:46:40.587Z,10.48
2022-12-04T22:49:08.458Z,11.25
2022-12-04T22:51:36.135Z,10.63
2022-12-04T22:54:07.839Z,11.43
2022-12-04T22:56:35.485Z,11.48
2022-12-04T22:59:03.129Z,11.60
2022-12-04T23:01:32.237Z,11.15
2022-12-04T23:04:00.163Z,11.50
2022-12-04T23:06:28.848Z,11.63
2022-12-04T23:08:56.671Z,12.65
2022-12-04T23:11:25.943Z,13.18
2022-12-04T23:13:54.416Z,14.05
2022-12-04T23:16:22.567Z,14.38
2022-12-04T23:18:50.404Z,14.32
2022-12-04T23:21:18.275Z,15.80
2022-12-04T23:23:46.542Z,16.65
2022-12-04T23:26:15.214Z,17.40
2022-12-04T23:28:44.335Z,18.42
2022-12-04T23:31:12.053Z,19.60
2022-12-04T23:33:39.958Z,21.80
2022-12-04T23:36:08.407Z,23.98
2022-12-04T23:38:36.849Z,25.65
2022-12-04T23:41:05.259Z,27.52
2022-12-04T23:43:33.075Z,29.48
2022-12-04T23:46:07.285Z,32.88
2022-12-04T23:48:38.179Z,35.55
2022-12-04T23:51:05.928Z,38.67
2022-12-04T23:53:33.584Z,42.40
2022-12-04T23:56:02.030Z,45.70
2022-12-04T23:58:29.664Z,49.53
